Terminal Aerodrome Forecast
Issued by NWS

Home | Current Version | Previous Version | Graphics & Text | Print | Product List | Glossary On
Versions: 1 2 3 4 5 6 7 8 9 10 11 12 13 14 15 16 17 18
000
FTUS43 KMPX 291120
TAFRNH
TAF
KRNH 291120Z 2912/3012 18007KT 6SM -SHRA SCT010 OVC020
     FM291600 22008KT 6SM -SHRA BR VCTS SCT012 OVC025CB
      TEMPO 2917/2921 2SM -TSRA BKN012CB
     FM292200 34015G20KT P6SM VCSH BKN012 OVC020
     FM300200 35014G19KT P6SM SCT025=

USA.gov is the U.S. government's official web portal to all federal, state and local government web resources and services.